Terminal Aerodrome Forecast
Issued by NWS

Home | Current Version | Previous Version | Graphics & Text | Print | Product List | Glossary On
Versions: 1 2 3 4 5 6 7 8 9 10 11 12 13 14 15 16 17 18 19 20 21 22
000
FTUS42 KMHX 281700
TAFOAJ
TAF
KOAJ 281720Z 2818/2918 24010G15KT P6SM VCTS SCT025 BKN040CB
     FM290100 34005KT P6SM SCT050
     FM291300 03008KT P6SM SKC
      AMD LTD TO CLD VIS AND WIND=

USA.gov is the U.S. government's official web portal to all federal, state and local government web resources and services.